sensor_id;sensor_type;location;lat;lon;timestamp;P1;durP1;ratioP1;P2;durP2;ratioP2
63346;SDS011;49472;49.880;8.650;2023-09-19T00:00:57;15.40;;;12.50;;
63346;SDS011;49472;49.880;8.650;2023-09-19T00:03:22;13.20;;;12.20;;
63346;SDS011;49472;49.880;8.650;2023-09-19T00:05:48;13.43;;;12.53;;
63346;SDS011;49472;49.880;8.650;2023-09-19T00:08:15;13.63;;;12.53;;
63346;SDS011;49472;49.880;8.650;2023-09-19T00:10:40;13.93;;;12.83;;
63346;SDS011;49472;49.880;8.650;2023-09-19T00:13:06;13.33;;;12.37;;
63346;SDS011;49472;49.880;8.650;2023-09-19T00:15:36;13.47;;;12.67;;
63346;SDS011;49472;49.880;8.650;2023-09-19T00:18:02;13.90;;;12.87;;
63346;SDS011;49472;49.880;8.650;2023-09-19T00:20:30;13.93;;;12.47;;
63346;SDS011;49472;49.880;8.650;2023-09-19T00:22:55;13.30;;;12.30;;
63346;SDS011;49472;49.880;8.650;2023-09-19T00:25:21;13.53;;;12.33;;
63346;SDS011;49472;49.880;8.650;2023-09-19T00:27:46;13.50;;;12.43;;
63346;SDS011;49472;49.880;8.650;2023-09-19T00:30:16;13.57;;;11.87;;
63346;SDS011;49472;49.880;8.650;2023-09-19T00:32:44;13.30;;;12.27;;
63346;SDS011;49472;49.880;8.650;2023-09-19T00:35:12;14.07;;;12.70;;
63346;SDS011;49472;49.880;8.650;2023-09-19T00:37:37;13.00;;;12.10;;
63346;SDS011;49472;49.880;8.650;2023-09-19T00:40:03;13.47;;;12.13;;
63346;SDS011;49472;49.880;8.650;2023-09-19T00:42:30;13.13;;;12.30;;
63346;SDS011;49472;49.880;8.650;2023-09-19T00:44:55;12.97;;;11.97;;
63346;SDS011;49472;49.880;8.650;2023-09-19T00:47:20;13.20;;;12.00;;
63346;SDS011;49472;49.880;8.650;2023-09-19T00:49:46;13.13;;;12.13;;
63346;SDS011;49472;49.880;8.650;2023-09-19T00:52:14;13.13;;;12.10;;
63346;SDS011;49472;49.880;8.650;2023-09-19T00:54:40;13.83;;;11.70;;
63346;SDS011;49472;49.880;8.650;2023-09-19T00:57:05;13.50;;;12.23;;
63346;SDS011;49472;49.880;8.650;2023-09-19T00:59:30;13.37;;;12.50;;
63346;SDS011;49472;49.880;8.650;2023-09-19T01:01:56;13.00;;;12.00;;
63346;SDS011;49472;49.880;8.650;2023-09-19T01:04:22;12.90;;;11.70;;
63346;SDS011;49472;49.880;8.650;2023-09-19T01:06:47;13.07;;;12.00;;
63346;SDS011;49472;49.880;8.650;2023-09-19T01:09:17;13.60;;;12.40;;
63346;SDS011;49472;49.880;8.650;2023-09-19T01:11:43;16.33;;;11.70;;
63346;SDS011;49472;49.880;8.650;2023-09-19T01:14:14;12.90;;;12.10;;
63346;SDS011;49472;49.880;8.650;2023-09-19T01:32:04;12.63;;;11.83;;
63346;SDS011;49472;49.880;8.650;2023-09-19T01:34:45;13.90;;;12.50;;
63346;SDS011;49472;49.880;8.650;2023-09-19T01:37:17;13.47;;;12.50;;
63346;SDS011;49472;49.880;8.650;2023-09-19T01:39:44;12.23;;;11.43;;
63346;SDS011;49472;49.880;8.650;2023-09-19T01:42:16;13.03;;;12.10;;
63346;SDS011;49472;49.880;8.650;2023-09-19T01:47:32;14.23;;;12.63;;
63346;SDS011;49472;49.880;8.650;2023-09-19T01:52:34;13.27;;;12.37;;
63346;SDS011;49472;49.880;8.650;2023-09-19T01:55:02;15.10;;;13.80;;
63346;SDS011;49472;49.880;8.650;2023-09-19T01:57:36;13.50;;;12.60;;
63346;SDS011;49472;49.880;8.650;2023-09-19T02:00:06;13.00;;;12.20;;
63346;SDS011;49472;49.880;8.650;2023-09-19T02:02:35;13.40;;;12.37;;
63346;SDS011;49472;49.880;8.650;2023-09-19T02:05:01;13.93;;;12.73;;
63346;SDS011;49472;49.880;8.650;2023-09-19T02:07:26;19.10;;;12.40;;
63346;SDS011;49472;49.880;8.650;2023-09-19T02:09:52;14.53;;;13.30;;
63346;SDS011;49472;49.880;8.650;2023-09-19T02:12:17;13.55;;;12.55;;
63346;SDS011;49472;49.880;8.650;2023-09-19T02:14:42;13.33;;;12.50;;
63346;SDS011;49472;49.880;8.650;2023-09-19T02:17:07;13.80;;;12.27;;
63346;SDS011;49472;49.880;8.650;2023-09-19T02:19:36;13.53;;;12.20;;
63346;SDS011;49472;49.880;8.650;2023-09-19T02:22:03;13.80;;;12.90;;
63346;SDS011;49472;49.880;8.650;2023-09-19T02:24:32;13.70;;;12.40;;
63346;SDS011;49472;49.880;8.650;2023-09-19T02:26:57;13.47;;;12.60;;
63346;SDS011;49472;49.880;8.650;2023-09-19T02:29:24;14.07;;;12.67;;
63346;SDS011;49472;49.880;8.650;2023-09-19T02:31:49;12.70;;;11.90;;
63346;SDS011;49472;49.880;8.650;2023-09-19T02:34:14;14.90;;;13.30;;
63346;SDS011;49472;49.880;8.650;2023-09-19T02:36:41;14.33;;;12.97;;
63346;SDS011;49472;49.880;8.650;2023-09-19T02:39:09;14.13;;;12.97;;
63346;SDS011;49472;49.880;8.650;2023-09-19T02:41:36;13.90;;;12.70;;
63346;SDS011;49472;49.880;8.650;2023-09-19T02:44:01;13.30;;;12.43;;
63346;SDS011;49472;49.880;8.650;2023-09-19T02:46:27;14.43;;;13.13;;
63346;SDS011;49472;49.880;8.650;2023-09-19T02:48:52;13.30;;;12.27;;
63346;SDS011;49472;49.880;8.650;2023-09-19T02:51:19;14.40;;;13.10;;
63346;SDS011;49472;49.880;8.650;2023-09-19T02:53:45;13.47;;;12.37;;
63346;SDS011;49472;49.880;8.650;2023-09-19T02:56:12;12.80;;;12.00;;
63346;SDS011;49472;49.880;8.650;2023-09-19T02:58:38;12.93;;;12.13;;
63346;SDS011;49472;49.880;8.650;2023-09-19T03:01:10;13.30;;;12.50;;
63346;SDS011;49472;49.880;8.650;2023-09-19T03:03:39;14.47;;;13.20;;
63346;SDS011;49472;49.880;8.650;2023-09-19T03:06:05;14.67;;;13.50;;
63346;SDS011;49472;49.880;8.650;2023-09-19T03:08:33;14.10;;;13.00;;
63346;SDS011;49472;49.880;8.650;2023-09-19T03:11:05;14.47;;;13.30;;
63346;SDS011;49472;49.880;8.650;2023-09-19T03:13:31;14.10;;;12.77;;
63346;SDS011;49472;49.880;8.650;2023-09-19T03:15:56;14.20;;;13.30;;
63346;SDS011;49472;49.880;8.650;2023-09-19T03:18:23;17.30;;;12.97;;
63346;SDS011;49472;49.880;8.650;2023-09-19T03:20:52;16.70;;;13.90;;
63346;SDS011;49472;49.880;8.650;2023-09-19T03:23:17;15.50;;;13.97;;
63346;SDS011;49472;49.880;8.650;2023-09-19T03:25:42;14.47;;;13.47;;
63346;SDS011;49472;49.880;8.650;2023-09-19T03:28:08;14.57;;;13.37;;
63346;SDS011;49472;49.880;8.650;2023-09-19T03:30:34;15.13;;;14.00;;
63346;SDS011;49472;49.880;8.650;2023-09-19T03:32:59;15.03;;;13.83;;
63346;SDS011;49472;49.880;8.650;2023-09-19T03:35:25;14.83;;;13.83;;
63346;SDS011;49472;49.880;8.650;2023-09-19T03:37:50;15.50;;;14.00;;
63346;SDS011;49472;49.880;8.650;2023-09-19T03:40:17;18.90;;;14.73;;
63346;SDS011;49472;49.880;8.650;2023-09-19T03:42:45;14.90;;;13.83;;
63346;SDS011;49472;49.880;8.650;2023-09-19T03:45:11;14.80;;;13.70;;
63346;SDS011;49472;49.880;8.650;2023-09-19T03:47:37;15.77;;;14.20;;
63346;SDS011;49472;49.880;8.650;2023-09-19T03:50:03;19.37;;;13.93;;
63346;SDS011;49472;49.880;8.650;2023-09-19T03:52:29;16.40;;;13.90;;
63346;SDS011;49472;49.880;8.650;2023-09-19T03:54:54;18.80;;;13.30;;
63346;SDS011;49472;49.880;8.650;2023-09-19T03:57:19;15.43;;;14.03;;
63346;SDS011;49472;49.880;8.650;2023-09-19T03:59:45;15.00;;;13.80;;
63346;SDS011;49472;49.880;8.650;2023-09-19T04:02:11;13.47;;;12.67;;
63346;SDS011;49472;49.880;8.650;2023-09-19T04:04:47;15.67;;;14.40;;
63346;SDS011;49472;49.880;8.650;2023-09-19T04:07:12;14.20;;;13.30;;
63346;SDS011;49472;49.880;8.650;2023-09-19T04:09:38;14.43;;;13.33;;
63346;SDS011;49472;49.880;8.650;2023-09-19T04:12:04;14.73;;;13.50;;
63346;SDS011;49472;49.880;8.650;2023-09-19T04:14:29;15.50;;;13.97;;
63346;SDS011;49472;49.880;8.650;2023-09-19T04:16:55;16.30;;;14.77;;
63346;SDS011;49472;49.880;8.650;2023-09-19T04:19:20;16.20;;;15.00;;
63346;SDS011;49472;49.880;8.650;2023-09-19T04:21:47;15.50;;;14.37;;
63346;SDS011;49472;49.880;8.650;2023-09-19T04:24:12;15.33;;;14.33;;
63346;SDS011;49472;49.880;8.650;2023-09-19T04:26:38;15.07;;;13.73;;
63346;SDS011;49472;49.880;8.650;2023-09-19T04:29:03;16.07;;;14.97;;
63346;SDS011;49472;49.880;8.650;2023-09-19T04:31:29;15.60;;;14.50;;
63346;SDS011;49472;49.880;8.650;2023-09-19T04:33:55;15.53;;;14.10;;
63346;SDS011;49472;49.880;8.650;2023-09-19T04:36:20;16.70;;;15.50;;
63346;SDS011;49472;49.880;8.650;2023-09-19T04:38:46;16.43;;;14.73;;
63346;SDS011;49472;49.880;8.650;2023-09-19T04:41:11;15.97;;;14.70;;
63346;SDS011;49472;49.880;8.650;2023-09-19T04:43:36;16.50;;;14.80;;
63346;SDS011;49472;49.880;8.650;2023-09-19T04:46:01;15.65;;;14.35;;
63346;SDS011;49472;49.880;8.650;2023-09-19T04:48:26;23.80;;;14.73;;
63346;SDS011;49472;49.880;8.650;2023-09-19T04:50:54;16.93;;;15.20;;
63346;SDS011;49472;49.880;8.650;2023-09-19T04:53:19;17.67;;;15.77;;
63346;SDS011;49472;49.880;8.650;2023-09-19T04:55:45;16.50;;;15.30;;
63346;SDS011;49472;49.880;8.650;2023-09-19T04:58:14;17.37;;;16.10;;
63346;SDS011;49472;49.880;8.650;2023-09-19T05:00:39;17.05;;;15.75;;
63346;SDS011;49472;49.880;8.650;2023-09-19T05:03:04;18.60;;;16.73;;
63346;SDS011;49472;49.880;8.650;2023-09-19T05:05:30;16.60;;;15.40;;
63346;SDS011;49472;49.880;8.650;2023-09-19T05:07:56;17.70;;;16.10;;
63346;SDS011;49472;49.880;8.650;2023-09-19T05:10:21;17.50;;;16.17;;
63346;SDS011;49472;49.880;8.650;2023-09-19T05:12:47;18.17;;;16.77;;
63346;SDS011;49472;49.880;8.650;2023-09-19T05:15:13;18.63;;;16.90;;
63346;SDS011;49472;49.880;8.650;2023-09-19T05:17:42;18.73;;;16.93;;
63346;SDS011;49472;49.880;8.650;2023-09-19T05:20:07;19.10;;;17.00;;
63346;SDS011;49472;49.880;8.650;2023-09-19T05:22:44;18.60;;;16.80;;
63346;SDS011;49472;49.880;8.650;2023-09-19T05:25:11;19.43;;;17.47;;
63346;SDS011;49472;49.880;8.650;2023-09-19T05:27:40;19.03;;;17.53;;
63346;SDS011;49472;49.880;8.650;2023-09-19T05:30:07;17.73;;;16.47;;
63346;SDS011;49472;49.880;8.650;2023-09-19T05:32:33;18.47;;;16.97;;
63346;SDS011;49472;49.880;8.650;2023-09-19T05:34:58;19.27;;;17.50;;
63346;SDS011;49472;49.880;8.650;2023-09-19T05:37:23;18.70;;;17.30;;
63346;SDS011;49472;49.880;8.650;2023-09-19T05:39:51;18.57;;;17.10;;
63346;SDS011;49472;49.880;8.650;2023-09-19T05:42:16;21.07;;;18.40;;
63346;SDS011;49472;49.880;8.650;2023-09-19T05:44:41;19.00;;;17.43;;
63346;SDS011;49472;49.880;8.650;2023-09-19T05:47:06;19.03;;;17.20;;
63346;SDS011;49472;49.880;8.650;2023-09-19T05:49:33;19.37;;;17.80;;
63346;SDS011;49472;49.880;8.650;2023-09-19T05:51:59;18.60;;;17.30;;
63346;SDS011;49472;49.880;8.650;2023-09-19T05:54:24;19.07;;;17.40;;
63346;SDS011;49472;49.880;8.650;2023-09-19T05:56:49;18.20;;;16.80;;
63346;SDS011;49472;49.880;8.650;2023-09-19T05:59:17;22.30;;;17.50;;
63346;SDS011;49472;49.880;8.650;2023-09-19T06:01:43;19.90;;;18.03;;
63346;SDS011;49472;49.880;8.650;2023-09-19T06:04:08;19.30;;;17.40;;
63346;SDS011;49472;49.880;8.650;2023-09-19T06:06:33;20.33;;;18.33;;
63346;SDS011;49472;49.880;8.650;2023-09-19T06:09:04;18.90;;;17.17;;
63346;SDS011;49472;49.880;8.650;2023-09-19T06:11:30;19.67;;;17.77;;
63346;SDS011;49472;49.880;8.650;2023-09-19T06:13:57;19.40;;;17.47;;
63346;SDS011;49472;49.880;8.650;2023-09-19T06:16:22;19.13;;;17.37;;
63346;SDS011;49472;49.880;8.650;2023-09-19T06:18:48;18.23;;;16.50;;
63346;SDS011;49472;49.880;8.650;2023-09-19T06:21:17;18.87;;;17.33;;
63346;SDS011;49472;49.880;8.650;2023-09-19T06:23:43;19.30;;;17.57;;
63346;SDS011;49472;49.880;8.650;2023-09-19T06:26:08;18.57;;;17.20;;
63346;SDS011;49472;49.880;8.650;2023-09-19T06:28:34;18.50;;;16.63;;
63346;SDS011;49472;49.880;8.650;2023-09-19T06:30:59;18.73;;;17.03;;
63346;SDS011;49472;49.880;8.650;2023-09-19T06:33:27;17.40;;;16.20;;
63346;SDS011;49472;49.880;8.650;2023-09-19T06:35:52;20.23;;;16.80;;
63346;SDS011;49472;49.880;8.650;2023-09-19T06:38:24;17.90;;;16.40;;
63346;SDS011;49472;49.880;8.650;2023-09-19T06:40:49;18.03;;;16.37;;
63346;SDS011;49472;49.880;8.650;2023-09-19T06:43:14;17.23;;;16.07;;
63346;SDS011;49472;49.880;8.650;2023-09-19T06:45:39;18.57;;;16.63;;
63346;SDS011;49472;49.880;8.650;2023-09-19T06:48:05;18.23;;;16.73;;
63346;SDS011;49472;49.880;8.650;2023-09-19T06:50:30;19.00;;;16.60;;
63346;SDS011;49472;49.880;8.650;2023-09-19T06:52:55;17.77;;;16.27;;
63346;SDS011;49472;49.880;8.650;2023-09-19T06:55:22;18.03;;;16.30;;
63346;SDS011;49472;49.880;8.650;2023-09-19T06:57:50;18.20;;;16.53;;
63346;SDS011;49472;49.880;8.650;2023-09-19T07:00:16;23.63;;;17.37;;
63346;SDS011;49472;49.880;8.650;2023-09-19T07:02:43;17.73;;;16.30;;
63346;SDS011;49472;49.880;8.650;2023-09-19T07:05:08;21.93;;;19.33;;
63346;SDS011;49472;49.880;8.650;2023-09-19T07:07:34;21.13;;;17.60;;
63346;SDS011;49472;49.880;8.650;2023-09-19T07:10:00;18.43;;;17.03;;
63346;SDS011;49472;49.880;8.650;2023-09-19T07:12:25;18.20;;;16.90;;
63346;SDS011;49472;49.880;8.650;2023-09-19T07:14:50;17.83;;;16.27;;
63346;SDS011;49472;49.880;8.650;2023-09-19T07:17:16;19.10;;;17.50;;
63346;SDS011;49472;49.880;8.650;2023-09-19T07:19:43;18.70;;;16.83;;
63346;SDS011;49472;49.880;8.650;2023-09-19T07:22:09;18.60;;;16.83;;
63346;SDS011;49472;49.880;8.650;2023-09-19T07:24:34;18.67;;;16.93;;
63346;SDS011;49472;49.880;8.650;2023-09-19T07:27:01;18.90;;;17.00;;
63346;SDS011;49472;49.880;8.650;2023-09-19T07:29:27;18.07;;;16.57;;
63346;SDS011;49472;49.880;8.650;2023-09-19T07:31:52;17.50;;;16.10;;
63346;SDS011;49472;49.880;8.650;2023-09-19T07:34:17;18.90;;;17.23;;
63346;SDS011;49472;49.880;8.650;2023-09-19T07:36:43;17.70;;;16.30;;
63346;SDS011;49472;49.880;8.650;2023-09-19T07:39:08;18.40;;;16.70;;
63346;SDS011;49472;49.880;8.650;2023-09-19T07:41:34;17.70;;;16.30;;
63346;SDS011;49472;49.880;8.650;2023-09-19T07:43:59;17.50;;;16.10;;
63346;SDS011;49472;49.880;8.650;2023-09-19T07:46:24;17.70;;;15.90;;
63346;SDS011;49472;49.880;8.650;2023-09-19T07:48:51;18.60;;;16.90;;
63346;SDS011;49472;49.880;8.650;2023-09-19T07:51:16;19.67;;;17.70;;
63346;SDS011;49472;49.880;8.650;2023-09-19T07:53:41;19.57;;;16.80;;
63346;SDS011;49472;49.880;8.650;2023-09-19T07:56:07;17.83;;;16.07;;
63346;SDS011;49472;49.880;8.650;2023-09-19T07:58:33;17.03;;;15.70;;
63346;SDS011;49472;49.880;8.650;2023-09-19T08:01:05;16.77;;;15.57;;
63346;SDS011;49472;49.880;8.650;2023-09-19T08:03:31;17.20;;;15.70;;
63346;SDS011;49472;49.880;8.650;2023-09-19T08:05:56;17.30;;;16.10;;
63346;SDS011;49472;49.880;8.650;2023-09-19T08:08:22;19.90;;;16.20;;
63346;SDS011;49472;49.880;8.650;2023-09-19T08:10:52;16.33;;;15.03;;
63346;SDS011;49472;49.880;8.650;2023-09-19T08:13:17;17.73;;;16.23;;
63346;SDS011;49472;49.880;8.650;2023-09-19T08:15:43;17.57;;;16.27;;
63346;SDS011;49472;49.880;8.650;2023-09-19T08:18:09;18.53;;;16.90;;
63346;SDS011;49472;49.880;8.650;2023-09-19T08:20:37;17.43;;;15.60;;
63346;SDS011;49472;49.880;8.650;2023-09-19T08:23:03;17.83;;;16.53;;
63346;SDS011;49472;49.880;8.650;2023-09-19T08:25:28;16.93;;;15.77;;
63346;SDS011;49472;49.880;8.650;2023-09-19T08:27:56;18.10;;;16.37;;
63346;SDS011;49472;49.880;8.650;2023-09-19T08:30:23;17.47;;;16.30;;
63346;SDS011;49472;49.880;8.650;2023-09-19T08:32:49;18.80;;;16.80;;
63346;SDS011;49472;49.880;8.650;2023-09-19T08:35:14;17.80;;;16.50;;
63346;SDS011;49472;49.880;8.650;2023-09-19T08:37:40;19.33;;;17.20;;
63346;SDS011;49472;49.880;8.650;2023-09-19T08:40:05;17.63;;;16.37;;
63346;SDS011;49472;49.880;8.650;2023-09-19T08:45:14;17.67;;;16.07;;
63346;SDS011;49472;49.880;8.650;2023-09-19T08:47:43;18.00;;;16.40;;
63346;SDS011;49472;49.880;8.650;2023-09-19T08:50:17;18.03;;;16.70;;
63346;SDS011;49472;49.880;8.650;2023-09-19T08:52:44;18.23;;;16.70;;
63346;SDS011;49472;49.880;8.650;2023-09-19T08:55:12;17.67;;;16.13;;
63346;SDS011;49472;49.880;8.650;2023-09-19T08:57:37;17.70;;;16.20;;
63346;SDS011;49472;49.880;8.650;2023-09-19T09:00:06;17.60;;;16.10;;
63346;SDS011;49472;49.880;8.650;2023-09-19T09:02:36;17.67;;;15.10;;
63346;SDS011;49472;49.880;8.650;2023-09-19T09:05:02;16.20;;;15.03;;
63346;SDS011;49472;49.880;8.650;2023-09-19T09:07:30;18.00;;;15.70;;
63346;SDS011;49472;49.880;8.650;2023-09-19T09:09:55;16.60;;;15.07;;
63346;SDS011;49472;49.880;8.650;2023-09-19T09:12:21;15.87;;;14.87;;
63346;SDS011;49472;49.880;8.650;2023-09-19T09:14:47;15.30;;;14.20;;
63346;SDS011;49472;49.880;8.650;2023-09-19T09:17:13;16.67;;;15.27;;
63346;SDS011;49472;49.880;8.650;2023-09-19T09:19:39;15.50;;;14.13;;
63346;SDS011;49472;49.880;8.650;2023-09-19T09:22:10;16.53;;;15.23;;
63346;SDS011;49472;49.880;8.650;2023-09-19T09:24:36;15.23;;;14.20;;
63346;SDS011;49472;49.880;8.650;2023-09-19T09:27:06;19.53;;;14.77;;
63346;SDS011;49472;49.880;8.650;2023-09-19T09:29:42;15.47;;;14.23;;
63346;SDS011;49472;49.880;8.650;2023-09-19T09:32:18;16.20;;;14.83;;
63346;SDS011;49472;49.880;8.650;2023-09-19T09:34:44;16.47;;;15.10;;
63346;SDS011;49472;49.880;8.650;2023-09-19T09:37:13;16.27;;;14.83;;
63346;SDS011;49472;49.880;8.650;2023-09-19T09:39:40;16.07;;;14.60;;
63346;SDS011;49472;49.880;8.650;2023-09-19T09:42:05;16.77;;;15.17;;
63346;SDS011;49472;49.880;8.650;2023-09-19T09:44:31;16.60;;;14.90;;
63346;SDS011;49472;49.880;8.650;2023-09-19T09:46:57;21.23;;;14.70;;
63346;SDS011;49472;49.880;8.650;2023-09-19T09:49:42;16.00;;;14.67;;
63346;SDS011;49472;49.880;8.650;2023-09-19T09:52:19;15.07;;;13.77;;
63346;SDS011;49472;49.880;8.650;2023-09-19T09:54:58;16.50;;;14.93;;
63346;SDS011;49472;49.880;8.650;2023-09-19T09:57:25;16.37;;;14.17;;
63346;SDS011;49472;49.880;8.650;2023-09-19T09:59:54;16.73;;;14.30;;
63346;SDS011;49472;49.880;8.650;2023-09-19T10:02:21;16.30;;;14.93;;
63346;SDS011;49472;49.880;8.650;2023-09-19T10:04:53;15.00;;;13.87;;
63346;SDS011;49472;49.880;8.650;2023-09-19T10:07:37;15.80;;;14.23;;
63346;SDS011;49472;49.880;8.650;2023-09-19T10:10:33;15.53;;;13.63;;
63346;SDS011;49472;49.880;8.650;2023-09-19T10:13:07;16.07;;;14.20;;
63346;SDS011;49472;49.880;8.650;2023-09-19T10:15:37;15.87;;;14.30;;
63346;SDS011;49472;49.880;8.650;2023-09-19T10:18:05;16.03;;;14.50;;
63346;SDS011;49472;49.880;8.650;2023-09-19T10:20:33;16.77;;;15.23;;
63346;SDS011;49472;49.880;8.650;2023-09-19T10:23:00;17.40;;;15.60;;
63346;SDS011;49472;49.880;8.650;2023-09-19T10:25:26;15.10;;;13.70;;
63346;SDS011;49472;49.880;8.650;2023-09-19T10:28:01;15.27;;;14.07;;
63346;SDS011;49472;49.880;8.650;2023-09-19T10:30:35;35.22;;;14.52;;
63346;SDS011;49472;49.880;8.650;2023-09-19T10:33:02;18.10;;;15.30;;
63346;SDS011;49472;49.880;8.650;2023-09-19T10:35:27;17.87;;;13.97;;
63346;SDS011;49472;49.880;8.650;2023-09-19T10:37:54;21.23;;;16.30;;
63346;SDS011;49472;49.880;8.650;2023-09-19T10:40:20;14.53;;;13.53;;
63346;SDS011;49472;49.880;8.650;2023-09-19T10:42:46;15.43;;;14.05;;
63346;SDS011;49472;49.880;8.650;2023-09-19T10:45:13;16.42;;;14.73;;
63346;SDS011;49472;49.880;8.650;2023-09-19T10:47:40;15.35;;;14.02;;
63346;SDS011;49472;49.880;8.650;2023-09-19T10:50:06;15.27;;;13.97;;
63346;SDS011;49472;49.880;8.650;2023-09-19T10:52:37;15.30;;;14.02;;
63346;SDS011;49472;49.880;8.650;2023-09-19T10:55:03;15.55;;;14.13;;
63346;SDS011;49472;49.880;8.650;2023-09-19T10:57:31;15.77;;;13.63;;
63346;SDS011;49472;49.880;8.650;2023-09-19T11:03:15;14.57;;;13.23;;
63346;SDS011;49472;49.880;8.650;2023-09-19T11:05:32;15.15;;;13.85;;
63346;SDS011;49472;49.880;8.650;2023-09-19T11:07:59;14.90;;;13.40;;
63346;SDS011;49472;49.880;8.650;2023-09-19T11:10:44;15.10;;;13.70;;
63346;SDS011;49472;49.880;8.650;2023-09-19T11:13:27;14.68;;;13.32;;
63346;SDS011;49472;49.880;8.650;2023-09-19T11:24:27;13.70;;;12.50;;
63346;SDS011;49472;49.880;8.650;2023-09-19T11:26:50;15.60;;;14.02;;
63346;SDS011;49472;49.880;8.650;2023-09-19T11:31:51;16.10;;;14.00;;
63346;SDS011;49472;49.880;8.650;2023-09-19T11:37:00;15.55;;;14.18;;
63346;SDS011;49472;49.880;8.650;2023-09-19T11:39:26;20.45;;;14.52;;
63346;SDS011;49472;49.880;8.650;2023-09-19T11:41:52;16.05;;;14.43;;
63346;SDS011;49472;49.880;8.650;2023-09-19T11:46:55;17.92;;;14.38;;
63346;SDS011;49472;49.880;8.650;2023-09-19T11:49:27;15.95;;;14.35;;
63346;SDS011;49472;49.880;8.650;2023-09-19T11:51:55;15.30;;;13.90;;
63346;SDS011;49472;49.880;8.650;2023-09-19T11:54:20;14.48;;;13.13;;
63346;SDS011;49472;49.880;8.650;2023-09-19T11:56:54;16.13;;;13.70;;
63346;SDS011;49472;49.880;8.650;2023-09-19T11:59:19;14.63;;;13.52;;
63346;SDS011;49472;49.880;8.650;2023-09-19T12:01:50;15.77;;;14.38;;
63346;SDS011;49472;49.880;8.650;2023-09-19T12:04:15;14.85;;;13.57;;
63346;SDS011;49472;49.880;8.650;2023-09-19T12:06:41;14.90;;;13.35;;
63346;SDS011;49472;49.880;8.650;2023-09-19T12:09:12;14.40;;;13.20;;
63346;SDS011;49472;49.880;8.650;2023-09-19T12:11:41;15.02;;;13.63;;
63346;SDS011;49472;49.880;8.650;2023-09-19T12:14:07;14.38;;;13.10;;
63346;SDS011;49472;49.880;8.650;2023-09-19T12:16:33;14.50;;;13.18;;
63346;SDS011;49472;49.880;8.650;2023-09-19T12:18:58;14.10;;;12.80;;
63346;SDS011;49472;49.880;8.650;2023-09-19T12:21:42;14.52;;;13.30;;
63346;SDS011;49472;49.880;8.650;2023-09-19T12:24:11;14.23;;;13.17;;
63346;SDS011;49472;49.880;8.650;2023-09-19T12:26:39;13.63;;;12.52;;
63346;SDS011;49472;49.880;8.650;2023-09-19T12:29:07;13.52;;;12.32;;
63346;SDS011;49472;49.880;8.650;2023-09-19T12:31:35;14.20;;;12.90;;
63346;SDS011;49472;49.880;8.650;2023-09-19T12:34:02;13.25;;;12.18;;
63346;SDS011;49472;49.880;8.650;2023-09-19T12:36:27;13.68;;;12.57;;
63346;SDS011;49472;49.880;8.650;2023-09-19T12:38:58;13.80;;;12.48;;
63346;SDS011;49472;49.880;8.650;2023-09-19T12:41:24;13.27;;;12.18;;
63346;SDS011;49472;49.880;8.650;2023-09-19T12:43:50;13.15;;;12.25;;
63346;SDS011;49472;49.880;8.650;2023-09-19T12:46:19;13.15;;;12.25;;
63346;SDS011;49472;49.880;8.650;2023-09-19T12:48:46;12.50;;;11.80;;
63346;SDS011;49472;49.880;8.650;2023-09-19T12:51:13;13.48;;;12.07;;
63346;SDS011;49472;49.880;8.650;2023-09-19T12:53:42;13.63;;;12.45;;
63346;SDS011;49472;49.880;8.650;2023-09-19T12:56:11;13.70;;;12.32;;
63346;SDS011;49472;49.880;8.650;2023-09-19T13:01:19;12.43;;;11.65;;
63346;SDS011;49472;49.880;8.650;2023-09-19T13:03:44;13.02;;;11.93;;
63346;SDS011;49472;49.880;8.650;2023-09-19T13:06:11;13.48;;;12.07;;
63346;SDS011;49472;49.880;8.650;2023-09-19T13:08:39;13.40;;;12.07;;
63346;SDS011;49472;49.880;8.650;2023-09-19T13:11:10;12.27;;;11.07;;
63346;SDS011;49472;49.880;8.650;2023-09-19T13:13:37;13.77;;;12.50;;
63346;SDS011;49472;49.880;8.650;2023-09-19T13:16:03;14.80;;;13.52;;
63346;SDS011;49472;49.880;8.650;2023-09-19T13:23:54;14.00;;;12.68;;
63346;SDS011;49472;49.880;8.650;2023-09-19T13:26:24;13.00;;;12.00;;
63346;SDS011;49472;49.880;8.650;2023-09-19T13:28:49;13.20;;;12.30;;
63346;SDS011;49472;49.880;8.650;2023-09-19T13:31:14;12.40;;;11.30;;
63346;SDS011;49472;49.880;8.650;2023-09-19T13:33:43;12.20;;;11.40;;
63346;SDS011;49472;49.880;8.650;2023-09-19T13:36:10;12.75;;;11.85;;
63346;SDS011;49472;49.880;8.650;2023-09-19T13:38:35;12.20;;;11.40;;
63346;SDS011;49472;49.880;8.650;2023-09-19T13:41:00;12.40;;;11.67;;
63346;SDS011;49472;49.880;8.650;2023-09-19T13:43:27;12.43;;;11.48;;
63346;SDS011;49472;49.880;8.650;2023-09-19T13:45:53;13.70;;;12.65;;
63346;SDS011;49472;49.880;8.650;2023-09-19T13:48:19;15.37;;;12.50;;
63346;SDS011;49472;49.880;8.650;2023-09-19T13:50:47;13.55;;;12.48;;
63346;SDS011;49472;49.880;8.650;2023-09-19T13:53:12;12.68;;;11.75;;
63346;SDS011;49472;49.880;8.650;2023-09-19T13:55:38;12.83;;;12.03;;
63346;SDS011;49472;49.880;8.650;2023-09-19T13:58:03;12.23;;;11.43;;
63346;SDS011;49472;49.880;8.650;2023-09-19T14:00:31;12.88;;;12.07;;
63346;SDS011;49472;49.880;8.650;2023-09-19T14:02:59;16.30;;;12.63;;
63346;SDS011;49472;49.880;8.650;2023-09-19T14:05:26;12.80;;;11.75;;
63346;SDS011;49472;49.880;8.650;2023-09-19T14:07:52;12.63;;;11.73;;
63346;SDS011;49472;49.880;8.650;2023-09-19T14:10:19;12.00;;;11.10;;
63346;SDS011;49472;49.880;8.650;2023-09-19T14:12:45;11.98;;;11.18;;
63346;SDS011;49472;49.880;8.650;2023-09-19T14:15:11;12.38;;;11.48;;
63346;SDS011;49472;49.880;8.650;2023-09-19T14:17:37;11.88;;;11.07;;
63346;SDS011;49472;49.880;8.650;2023-09-19T14:20:02;11.27;;;10.57;;
63346;SDS011;49472;49.880;8.650;2023-09-19T14:22:28;13.40;;;12.43;;
63346;SDS011;49472;49.880;8.650;2023-09-19T14:24:53;12.50;;;11.57;;
63346;SDS011;49472;49.880;8.650;2023-09-19T14:27:19;12.27;;;11.27;;
63346;SDS011;49472;49.880;8.650;2023-09-19T14:29:44;11.88;;;11.07;;
63346;SDS011;49472;49.880;8.650;2023-09-19T14:32:09;12.00;;;11.10;;
63346;SDS011;49472;49.880;8.650;2023-09-19T14:34:35;13.40;;;12.32;;
63346;SDS011;49472;49.880;8.650;2023-09-19T14:37:06;12.95;;;12.05;;
63346;SDS011;49472;49.880;8.650;2023-09-19T14:39:32;13.52;;;12.43;;
63346;SDS011;49472;49.880;8.650;2023-09-19T14:41:57;13.20;;;12.30;;
63346;SDS011;49472;49.880;8.650;2023-09-19T14:44:22;13.43;;;12.52;;
63346;SDS011;49472;49.880;8.650;2023-09-19T14:46:47;13.20;;;12.10;;
63346;SDS011;49472;49.880;8.650;2023-09-19T14:49:16;13.40;;;12.17;;
63346;SDS011;49472;49.880;8.650;2023-09-19T14:51:41;12.98;;;12.07;;
63346;SDS011;49472;49.880;8.650;2023-09-19T14:54:09;13.00;;;12.20;;
63346;SDS011;49472;49.880;8.650;2023-09-19T14:56:34;13.02;;;12.02;;
63346;SDS011;49472;49.880;8.650;2023-09-19T14:58:59;13.00;;;12.05;;
63346;SDS011;49472;49.880;8.650;2023-09-19T15:01:24;12.27;;;11.40;;
63346;SDS011;49472;49.880;8.650;2023-09-19T15:03:50;12.82;;;12.13;;
63346;SDS011;49472;49.880;8.650;2023-09-19T15:06:15;12.18;;;11.45;;
63346;SDS011;49472;49.880;8.650;2023-09-19T15:08:44;12.68;;;11.88;;
63346;SDS011;49472;49.880;8.650;2023-09-19T15:11:16;12.35;;;11.63;;